TimeEST,TemperatureF,Dew PointF,Humidity,Sea Level PressureIn,VisibilityMPH,Wind Direction,Wind SpeedMPH,Gust SpeedMPH,PrecipitationIn,Events,Conditions,WindDirDegrees,DateUTC
12:54 AM,39.9,28.9,65,29.71,10.0,West,10.4,-,N/A,,Mostly Cloudy,280,2013-03-01 05:54:00
1:54 AM,39.2,30.2,70,29.72,10.0,West,12.7,-,N/A,,Overcast,280,2013-03-01 06:54:00
2:54 AM,39.9,30.9,70,29.72,10.0,WNW,12.7,-,N/A,,Overcast,290,2013-03-01 07:54:00
3:54 AM,39.2,30.2,70,29.73,10.0,West,10.4,-,N/A,,Overcast,280,2013-03-01 08:54:00
4:54 AM,39.2,30.2,70,29.73,10.0,West,9.2,-,N/A,,Mostly Cloudy,270,2013-03-01 09:54:00
5:54 AM,39.2,30.2,70,29.74,10.0,WNW,6.9,-,N/A,,Mostly Cloudy,290,2013-03-01 10:54:00
6:54 AM,39.2,30.2,70,29.76,10.0,West,6.9,-,N/A,,Mostly Cloudy,280,2013-03-01 11:54:00
7:54 AM,39.9,30.0,68,29.78,10.0,WNW,11.5,-,N/A,,Mostly Cloudy,290,2013-03-01 12:54:00
8:54 AM,42.1,30.0,62,29.80,10.0,WNW,9.2,-,N/A,,Mostly Cloudy,290,2013-03-01 13:54:00
9:54 AM,44.1,28.0,53,29.79,10.0,WNW,12.7,23.0,N/A,,Mostly Cloudy,300,2013-03-01 14:54:00
10:54 AM,42.8,28.4,57,29.79,10.0,WNW,12.7,-,N/A,,Mostly Cloudy,300,2013-03-01 15:54:00
11:54 AM,44.1,28.0,53,29.80,10.0,West,13.8,-,N/A,,Overcast,280,2013-03-01 16:54:00
12:54 PM,44.1,26.1,49,29.79,10.0,West,13.8,20.7,N/A,,Overcast,280,2013-03-01 17:54:00
1:54 PM,43.0,26.1,51,29.78,10.0,WNW,13.8,18.4,N/A,,Overcast,290,2013-03-01 18:54:00
2:54 PM,43.0,26.1,51,29.78,10.0,WNW,9.2,-,N/A,,Overcast,300,2013-03-01 19:54:00
3:54 PM,43.0,24.1,47,29.78,10.0,NNW,10.4,-,N/A,,Overcast,330,2013-03-01 20:54:00
4:54 PM,42.8,24.8,49,29.79,10.0,NW,11.5,-,N/A,,Overcast,320,2013-03-01 21:54:00
5:54 PM,42.1,25.0,51,29.81,10.0,WNW,10.4,-,N/A,,Overcast,290,2013-03-01 22:54:00
6:54 PM,41.0,25.0,53,29.83,10.0,NW,9.2,17.3,N/A,,Overcast,320,2013-03-01 23:54:00
7:54 PM,39.9,26.1,58,29.84,10.0,WNW,10.4,-,N/A,,Overcast,300,2013-03-02 00:54:00
8:54 PM,39.0,25.0,57,29.86,10.0,NW,5.8,-,N/A,,Overcast,310,2013-03-02 01:54:00
9:54 PM,37.9,24.1,57,29.86,10.0,WNW,6.9,-,N/A,,Mostly Cloudy,300,2013-03-02 02:54:00
10:54 PM,36.0,23.0,59,29.86,10.0,WNW,8.1,-,N/A,,Scattered Clouds,290,2013-03-02 03:54:00
11:54 PM,34.0,24.1,67,29.86,10.0,West,8.1,-,N/A,,Scattered Clouds,280,2013-03-02 04:54:00